Wetterdaten: Woche 09.06.03 - 15.06.03 (KW24)
Datum Zeit Temperatur Luftfeuchte Luftdruck Regenmenge Wind Richtung Taupunkt Windchill
09.06.2003 00:00 18.4 C 100 % 1018.4 hPa 0.0 l/m 0.7 km/h (0 Bft) O 18.4 C 18.4 C
09.06.2003 01:00 18.2 C 100 % 1019.4 hPa 0.0 l/m 2.3 km/h (1 Bft) O-SO 18.1 C 18.2 C
09.06.2003 02:00 18.1 C 98 % 1019.4 hPa 0.0 l/m 0.0 km/h (0 Bft) N 17.7 C 18.1 C
09.06.2003 03:00 17.5 C 99 % 1019.4 hPa 0.0 l/m 3.7 km/h (1 Bft) SO 17.4 C 17.5 C
09.06.2003 04:00 17.4 C 96 % 1019.5 hPa 0.0 l/m 1.3 km/h (1 Bft) SO 16.7 C 17.4 C
09.06.2003 05:00 16.9 C 97 % 1019.7 hPa 0.0 l/m 1.7 km/h (1 Bft) O-SO 16.3 C 16.9 C
09.06.2003 06:00 16.9 C 99 % 1020.5 hPa 0.0 l/m 3.4 km/h (1 Bft) O-SO 16.7 C 16.9 C
09.06.2003 07:00 17.7 C 96 % 1020.5 hPa 0.0 l/m 0.9 km/h (0 Bft) SO 17.0 C 17.7 C
09.06.2003 08:00 19.3 C 86 % 1020.8 hPa 0.0 l/m 0.6 km/h (0 Bft) SO 16.9 C 19.3 C
09.06.2003 09:00 20.3 C 78 % 1020.7 hPa 0.0 l/m 0.2 km/h (0 Bft) SO 16.3 C 20.3 C
09.06.2003 10:00 21.9 C 71 % 1020.5 hPa 0.0 l/m 0.7 km/h (0 Bft) N-NO 16.3 C 21.9 C
09.06.2003 11:00 23.3 C 62 % 1020.5 hPa 0.0 l/m 1.7 km/h (1 Bft) O-SO 15.6 C 23.3 C
09.06.2003 12:00 24.3 C 58 % 1020.5 hPa 0.0 l/m 1.3 km/h (1 Bft) W 15.4 C 24.3 C
09.06.2003 13:00 25.5 C 51 % 1019.8 hPa 0.0 l/m 2.0 km/h (1 Bft) W-NW 14.6 C 25.5 C
09.06.2003 14:00 27.2 C 43 % 1019.4 hPa 0.0 l/m 1.7 km/h (1 Bft) W-NW 13.6 C 27.2 C
09.06.2003 15:00 28.5 C 41 % 1018.8 hPa 0.0 l/m 2.7 km/h (1 Bft) W-NW 13.9 C 28.5 C
09.06.2003 16:00 29.0 C 38 % 1018.4 hPa 0.0 l/m 1.9 km/h (1 Bft) W-NW 13.2 C 29.0 C
09.06.2003 17:00 28.7 C 36 % 1017.7 hPa 0.0 l/m 2.1 km/h (1 Bft) W-NW 12.1 C 28.7 C
09.06.2003 18:00 28.7 C 40 % 1017.3 hPa 0.0 l/m 0.8 km/h (0 Bft) W 13.6 C 28.7 C
09.06.2003 19:00 27.7 C 44 % 1017.3 hPa 0.0 l/m 0.6 km/h (0 Bft) S-SO 14.4 C 27.7 C
09.06.2003 20:00 25.8 C 57 % 1017.3 hPa 0.0 l/m 5.1 km/h (1 Bft) O-SO 16.6 C 25.8 C
09.06.2003 21:00 22.0 C 70 % 1017.5 hPa 0.0 l/m 1.9 km/h (1 Bft) O-SO 16.2 C 22.0 C
09.06.2003 22:00 19.7 C 78 % 1018.4 hPa 0.0 l/m 0.0 km/h (0 Bft) N 15.8 C 19.7 C
09.06.2003 23:00 18.4 C 83 % 1018.4 hPa 0.0 l/m 0.7 km/h (0 Bft) O-SO 15.5 C 18.4 C
10.06.2003 00:00 17.3 C 90 % 1018.4 hPa 0.0 l/m 0.0 km/h (0 Bft) N 15.7 C 17.3 C
10.06.2003 01:00 16.6 C 94 % 1018.4 hPa 0.0 l/m 0.0 km/h (0 Bft) N 15.6 C 16.6 C
10.06.2003 02:00 15.9 C 96 % 1018.4 hPa 0.0 l/m 0.4 km/h (0 Bft) O-SO 15.3 C 15.9 C
10.06.2003 03:00 15.4 C 98 % 1018.4 hPa 0.0 l/m 2.3 km/h (1 Bft) O-SO 15.1 C 15.4 C
10.06.2003 04:00 14.9 C 100 % 1018.4 hPa 0.0 l/m 0.0 km/h (0 Bft) N 14.8 C 14.9 C
10.06.2003 05:00 14.6 C 100 % 1018.4 hPa 0.0 l/m 0.0 km/h (0 Bft) N 14.6 C 14.6 C
10.06.2003 06:00 15.3 C 98 % 1018.4 hPa 0.0 l/m 0.9 km/h (0 Bft) O-SO 15.0 C 15.3 C
10.06.2003 07:00 16.3 C 93 % 1018.4 hPa 0.0 l/m 0.0 km/h (0 Bft) N 15.1 C 16.3 C
10.06.2003 08:00 17.9 C 84 % 1018.4 hPa 0.0 l/m 0.0 km/h (0 Bft) N 15.2 C 17.9 C
10.06.2003 09:00 20.6 C 74 % 1018.4 hPa 0.0 l/m 1.0 km/h (0 Bft) W 15.8 C 20.6 C
10.06.2003 10:00 23.4 C 63 % 1018.4 hPa 0.0 l/m 1.7 km/h (1 Bft) W-NW 16.0 C 23.4 C
10.06.2003 11:00 26.3 C 53 % 1018.4 hPa 0.0 l/m 2.8 km/h (1 Bft) O-SO 15.9 C 26.3 C
10.06.2003 12:00 28.6 C 44 % 1018.1 hPa 0.0 l/m 6.2 km/h (2 Bft) O-SO 15.2 C 28.6 C
10.06.2003 13:00 30.8 C 35 % 1017.3 hPa 0.0 l/m 8.1 km/h (2 Bft) O-SO 13.6 C 30.8 C
10.06.2003 14:00 32.0 C 31 % 1016.4 hPa 0.0 l/m 5.4 km/h (1 Bft) O-SO 12.6 C 32.0 C
10.06.2003 15:00 32.6 C 26 % 1016.3 hPa 0.0 l/m 5.1 km/h (1 Bft) NW 10.7 C 32.6 C
10.06.2003 16:00 33.2 C 26 % 1016.3 hPa 0.0 l/m 10.6 km/h (2 Bft) NW 11.0 C 33.2 C
10.06.2003 17:00 32.7 C 26 % 1015.3 hPa 0.0 l/m 9.7 km/h (2 Bft) W-NW 10.4 C 32.7 C
10.06.2003 18:00 32.3 C 31 % 1015.3 hPa 0.0 l/m 9.0 km/h (2 Bft) SO 12.9 C 32.3 C
10.06.2003 19:00 30.8 C 32 % 1015.3 hPa 0.0 l/m 3.1 km/h (1 Bft) W-NW 12.2 C 30.8 C
10.06.2003 20:00 27.6 C 38 % 1015.7 hPa 0.0 l/m 5.3 km/h (1 Bft) O-SO 12.0 C 27.6 C
10.06.2003 21:00 24.6 C 45 % 1016.3 hPa 0.0 l/m 4.9 km/h (1 Bft) O-SO 12.0 C 24.6 C
10.06.2003 22:00 22.0 C 58 % 1017.1 hPa 0.0 l/m 1.1 km/h (1 Bft) O-SO 13.2 C 22.0 C
10.06.2003 23:00 20.2 C 66 % 1017.5 hPa 0.0 l/m 2.4 km/h (1 Bft) O-SO 13.6 C 20.2 C
11.06.2003 00:00 19.4 C 72 % 1017.9 hPa 0.0 l/m 1.8 km/h (1 Bft) O-SO 14.2 C 19.4 C
11.06.2003 01:00 18.5 C 79 % 1018.4 hPa 0.0 l/m 1.2 km/h (1 Bft) O-SO 14.9 C 18.5 C
11.06.2003 02:00 17.8 C 82 % 1018.4 hPa 0.0 l/m 0.4 km/h (0 Bft) O-SO 14.7 C 17.8 C
11.06.2003 03:00 17.4 C 84 % 1018.4 hPa 0.0 l/m 0.0 km/h (0 Bft) N 14.7 C 17.4 C
11.06.2003 04:00 17.2 C 88 % 1019.4 hPa 0.0 l/m 0.0 km/h (0 Bft) N 15.1 C 17.2 C
11.06.2003 05:00 16.7 C 90 % 1019.4 hPa 0.0 l/m 1.6 km/h (1 Bft) O-SO 15.1 C 16.7 C
11.06.2003 06:00 17.5 C 87 % 1020.1 hPa 0.0 l/m 0.3 km/h (0 Bft) O-SO 15.4 C 17.5 C
11.06.2003 07:00 19.3 C 80 % 1020.5 hPa 0.0 l/m 0.0 km/h (0 Bft) N 15.8 C 19.3 C
11.06.2003 08:00 21.5 C 73 % 1021.0 hPa 0.0 l/m 0.8 km/h (0 Bft) O-SO 16.5 C 21.5 C
11.06.2003 09:00 24.0 C 64 % 1021.5 hPa 0.0 l/m 1.4 km/h (1 Bft) W-NW 16.9 C 24.0 C
11.06.2003 10:00 25.4 C 60 % 1021.5 hPa 0.0 l/m 6.2 km/h (2 Bft) W-NW 17.0 C 25.4 C
11.06.2003 11:00 26.9 C 50 % 1021.5 hPa 0.0 l/m 2.4 km/h (1 Bft) NW 15.4 C 26.9 C
11.06.2003 12:00 28.0 C 45 % 1020.9 hPa 0.0 l/m 3.4 km/h (1 Bft) W-NW 14.8 C 28.0 C
11.06.2003 13:00 28.9 C 44 % 1020.5 hPa 0.0 l/m 1.4 km/h (1 Bft) N-NW 15.4 C 28.9 C
11.06.2003 14:00 30.5 C 41 % 1020.5 hPa 0.0 l/m 2.2 km/h (1 Bft) NW 15.6 C 30.5 C
11.06.2003 15:00 31.5 C 38 % 1019.5 hPa 0.0 l/m 4.5 km/h (1 Bft) O-SO 15.3 C 31.5 C
11.06.2003 16:00 31.9 C 38 % 1019.4 hPa 0.0 l/m 0.9 km/h (0 Bft) NW 15.8 C 31.9 C
11.06.2003 17:00 32.5 C 37 % 1018.4 hPa 0.0 l/m 1.3 km/h (1 Bft) O-SO 15.9 C 32.5 C
11.06.2003 18:00 32.4 C 37 % 1018.4 hPa 0.0 l/m 1.3 km/h (1 Bft) O-SO 15.7 C 32.4 C
11.06.2003 19:00 31.4 C 38 % 1018.4 hPa 0.0 l/m 0.0 km/h (0 Bft) N 15.3 C 31.4 C
11.06.2003 20:00 29.3 C 48 % 1018.4 hPa 0.0 l/m 0.3 km/h (0 Bft) O 17.1 C 29.3 C
11.06.2003 21:00 25.1 C 61 % 1018.4 hPa 0.0 l/m 3.7 km/h (1 Bft) O 16.9 C 25.1 C
11.06.2003 22:00 22.6 C 70 % 1019.1 hPa 0.0 l/m 1.4 km/h (1 Bft) O-SO 16.8 C 22.6 C
11.06.2003 23:00 21.0 C 75 % 1019.4 hPa 0.0 l/m 0.6 km/h (0 Bft) O-SO 16.5 C 21.0 C
12.06.2003 00:00 19.7 C 81 % 1019.4 hPa 0.0 l/m 0.4 km/h (0 Bft) O-SO 16.3 C 19.7 C
12.06.2003 01:00 18.8 C 83 % 1019.4 hPa 0.0 l/m 0.5 km/h (0 Bft) O-SO 15.9 C 18.8 C
12.06.2003 02:00 18.5 C 87 % 1019.4 hPa 0.0 l/m 0.9 km/h (0 Bft) O-SO 16.3 C 18.5 C
12.06.2003 03:00 17.9 C 88 % 1019.4 hPa 0.0 l/m 0.4 km/h (0 Bft) O-SO 15.9 C 17.9 C
12.06.2003 04:00 17.2 C 92 % 1019.4 hPa 0.0 l/m 0.1 km/h (0 Bft) O-SO 15.9 C 17.2 C
12.06.2003 05:00 16.5 C 95 % 1019.4 hPa 0.0 l/m 1.5 km/h (1 Bft) O-SO 15.8 C 16.5 C
12.06.2003 06:00 17.2 C 95 % 1019.4 hPa 0.0 l/m 0.3 km/h (0 Bft) O-SO 16.3 C 17.2 C
12.06.2003 07:00 18.6 C 87 % 1019.8 hPa 0.0 l/m 0.0 km/h (0 Bft) N 16.4 C 18.6 C
12.06.2003 08:00 20.4 C 79 % 1020.5 hPa 0.0 l/m 0.0 km/h (0 Bft) N 16.5 C 20.4 C
12.06.2003 09:00 22.9 C 69 % 1020.4 hPa 0.0 l/m 0.1 km/h (0 Bft) N 16.9 C 22.9 C
12.06.2003 10:00 26.2 C 59 % 1019.4 hPa 0.0 l/m 3.3 km/h (1 Bft) O-SO 17.5 C 26.2 C
12.06.2003 11:00 28.1 C 53 % 1019.3 hPa 0.0 l/m 2.4 km/h (1 Bft) O-SO 17.5 C 28.1 C
12.06.2003 12:00 29.9 C 46 % 1018.4 hPa 0.0 l/m 2.8 km/h (1 Bft) O-SO 17.0 C 29.9 C
12.06.2003 13:00 31.3 C 32 % 1018.2 hPa 0.0 l/m 2.2 km/h (1 Bft) W-NW 12.4 C 31.3 C
12.06.2003 14:00 32.8 C 27 % 1017.3 hPa 0.0 l/m 3.0 km/h (1 Bft) NW 11.3 C 32.8 C
12.06.2003 15:00 33.8 C 25 % 1016.5 hPa 0.0 l/m 2.3 km/h (1 Bft) W-NW 11.1 C 33.8 C
12.06.2003 16:00 33.6 C 27 % 1016.3 hPa 0.0 l/m 1.0 km/h (0 Bft) W-NW 11.8 C 33.6 C
12.06.2003 17:00 33.8 C 26 % 1015.9 hPa 0.0 l/m 1.5 km/h (1 Bft) W-NW 11.5 C 33.8 C
12.06.2003 18:00 30.7 C 41 % 1015.8 hPa 0.0 l/m 0.0 km/h (0 Bft) N 15.8 C 30.7 C
12.06.2003 19:00 29.0 C 47 % 1016.4 hPa 0.0 l/m 8.3 km/h (2 Bft) W-NW 16.5 C 29.0 C
12.06.2003 20:00 28.7 C 43 % 1017.3 hPa 0.0 l/m 8.3 km/h (2 Bft) NW 14.9 C 28.7 C
12.06.2003 21:00 26.7 C 44 % 1017.6 hPa 0.0 l/m 5.4 km/h (1 Bft) O-SO 13.2 C 26.7 C
12.06.2003 22:00 24.7 C 56 % 1019.7 hPa 0.0 l/m 13.1 km/h (3 Bft) O-SO 15.2 C 24.7 C
12.06.2003 23:00 23.9 C 58 % 1020.9 hPa 0.0 l/m 0.8 km/h (0 Bft) SO 15.0 C 23.9 C
13.06.2003 00:00 22.6 C 64 % 1020.6 hPa 0.0 l/m 0.0 km/h (0 Bft) N 15.5 C 22.6 C
13.06.2003 01:00 21.7 C 74 % 1020.6 hPa 0.0 l/m 2.0 km/h (1 Bft) O-SO 16.9 C 21.7 C
13.06.2003 02:00 20.6 C 87 % 1019.9 hPa 0.0 l/m 0.0 km/h (0 Bft) N 18.3 C 20.6 C
13.06.2003 03:00 19.7 C 92 % 1020.2 hPa 0.0 l/m 1.7 km/h (1 Bft) O-SO 18.3 C 19.7 C
13.06.2003 04:00 19.2 C 94 % 1019.6 hPa 0.0 l/m 0.0 km/h (0 Bft) N 18.2 C 19.2 C
13.06.2003 05:00 18.7 C 95 % 1019.4 hPa 0.0 l/m 1.1 km/h (0 Bft) O-SO 17.9 C 18.7 C
13.06.2003 06:00 18.9 C 93 % 1020.2 hPa 0.0 l/m 0.5 km/h (0 Bft) O-SO 17.6 C 18.9 C
13.06.2003 07:00 19.9 C 88 % 1020.8 hPa 0.0 l/m 1.2 km/h (1 Bft) O-SO 17.9 C 19.9 C
13.06.2003 08:00 21.4 C 79 % 1021.5 hPa 0.0 l/m 1.1 km/h (0 Bft) O-SO 17.7 C 21.4 C
13.06.2003 09:00 21.8 C 74 % 1022.5 hPa 0.3 l/m 14.0 km/h (3 Bft) NW 17.0 C 21.8 C
13.06.2003 10:00 20.1 C 93 % 1022.3 hPa 1.5 l/m 7.0 km/h (2 Bft) O-SO 18.8 C 20.1 C
13.06.2003 11:00 21.1 C 89 % 1022.7 hPa 0.0 l/m 2.9 km/h (1 Bft) W-NW 19.2 C 21.1 C
13.06.2003 12:00 23.4 C 71 % 1022.5 hPa 0.0 l/m 1.5 km/h (1 Bft) O-SO 17.7 C 23.4 C
13.06.2003 13:00 24.1 C 64 % 1021.5 hPa 0.0 l/m 0.7 km/h (0 Bft) S-SO 17.0 C 24.1 C
13.06.2003 14:00 26.2 C 53 % 1021.5 hPa 0.0 l/m 1.2 km/h (1 Bft) W-NW 15.9 C 26.2 C
13.06.2003 15:00 28.7 C 41 % 1020.7 hPa 0.0 l/m 1.0 km/h (0 Bft) W-NW 13.9 C 28.7 C
13.06.2003 16:00 29.4 C 37 % 1020.5 hPa 0.0 l/m 0.3 km/h (0 Bft) N 13.0 C 29.4 C
13.06.2003 17:00 29.6 C 42 % 1020.1 hPa 0.0 l/m 0.7 km/h (0 Bft) N-NW 15.1 C 29.6 C
13.06.2003 18:00 30.7 C 41 % 1019.4 hPa 0.0 l/m 0.1 km/h (0 Bft) N 15.8 C 30.7 C
13.06.2003 19:00 29.5 C 44 % 1019.4 hPa 0.0 l/m 0.0 km/h (0 Bft) N 15.9 C 29.5 C
13.06.2003 20:00 27.3 C 55 % 1019.4 hPa 0.0 l/m 0.0 km/h (0 Bft) N 17.5 C 27.3 C
13.06.2003 21:00 23.8 C 67 % 1020.2 hPa 0.0 l/m 0.0 km/h (0 Bft) S-SO 17.2 C 23.8 C
13.06.2003 22:00 21.5 C 77 % 1020.5 hPa 0.0 l/m 1.5 km/h (1 Bft) SO 17.3 C 21.5 C
13.06.2003 23:00 20.2 C 83 % 1021.4 hPa 0.0 l/m 0.0 km/h (0 Bft) N 17.1 C 20.2 C
14.06.2003 00:00 19.5 C 86 % 1021.4 hPa 0.0 l/m 0.0 km/h (0 Bft) N 17.1 C 19.5 C
14.06.2003 01:00 19.2 C 91 % 1020.5 hPa 0.0 l/m 0.0 km/h (0 Bft) N 17.7 C 19.2 C
14.06.2003 02:00 18.6 C 92 % 1020.5 hPa 0.0 l/m 0.0 km/h (0 Bft) N 17.3 C 18.6 C
14.06.2003 03:00 18.2 C 97 % 1020.5 hPa 0.0 l/m 0.0 km/h (0 Bft) N 17.7 C 18.2 C
14.06.2003 04:00 17.7 C 98 % 1020.5 hPa 0.0 l/m 0.0 km/h (0 Bft) N 17.4 C 17.7 C
14.06.2003 05:00 17.1 C 100 % 1020.5 hPa 0.0 l/m 0.0 km/h (0 Bft) N 17.1 C 17.1 C
14.06.2003 06:00 17.6 C 97 % 1020.5 hPa 0.0 l/m 0.0 km/h (0 Bft) N 17.2 C 17.6 C
14.06.2003 07:00 19.0 C 90 % 1020.5 hPa 0.0 l/m 0.0 km/h (0 Bft) N 17.3 C 19.0 C
14.06.2003 08:00 20.7 C 80 % 1020.5 hPa 0.0 l/m 0.0 km/h (0 Bft) N 17.1 C 20.7 C
14.06.2003 09:00 23.1 C 71 % 1020.2 hPa 0.0 l/m 0.5 km/h (0 Bft) O-SO 17.5 C 23.1 C
14.06.2003 10:00 25.6 C 61 % 1019.4 hPa 0.0 l/m 4.3 km/h (1 Bft) O-SO 17.5 C 25.6 C
14.06.2003 11:00 27.6 C 52 % 1018.6 hPa 0.0 l/m 2.5 km/h (1 Bft) O-SO 16.9 C 27.6 C
14.06.2003 12:00 29.6 C 41 % 1018.4 hPa 0.0 l/m 3.7 km/h (1 Bft) SO 14.9 C 29.6 C
14.06.2003 13:00 30.9 C 34 % 1017.7 hPa 0.0 l/m 3.1 km/h (1 Bft) W-NW 13.0 C 30.9 C
14.06.2003 14:00 32.5 C 31 % 1016.7 hPa 0.0 l/m 4.3 km/h (1 Bft) O-SO 13.2 C 32.5 C
14.06.2003 15:00 32.8 C 26 % 1016.3 hPa 0.0 l/m 17.8 km/h (3 Bft) NW 10.8 C 32.8 C
14.06.2003 16:00 30.8 C 33 % 1016.7 hPa 0.0 l/m 26.0 km/h (4 Bft) NW 12.4 C 30.8 C
14.06.2003 17:00 28.6 C 46 % 1017.9 hPa 0.0 l/m 2.7 km/h (1 Bft) NW 15.9 C 28.6 C
14.06.2003 18:00 27.4 C 54 % 1018.2 hPa 0.0 l/m 1.0 km/h (0 Bft) W-NW 17.3 C 27.4 C
14.06.2003 19:00 26.5 C 60 % 1018.4 hPa 0.0 l/m 3.2 km/h (1 Bft) SO 18.0 C 26.5 C
14.06.2003 20:00 24.6 C 54 % 1018.4 hPa 0.0 l/m 6.5 km/h (2 Bft) O-SO 14.7 C 24.6 C
14.06.2003 21:00 23.4 C 58 % 1018.4 hPa 0.0 l/m 0.4 km/h (0 Bft) O-SO 14.6 C 23.4 C
14.06.2003 22:00 21.3 C 70 % 1018.4 hPa 0.0 l/m 4.2 km/h (1 Bft) O-SO 15.5 C 21.3 C
14.06.2003 23:00 20.9 C 69 % 1018.4 hPa 0.0 l/m 5.5 km/h (1 Bft) O-SO 15.0 C 20.9 C
15.06.2003 00:00 20.5 C 72 % 1018.4 hPa 0.0 l/m 5.4 km/h (1 Bft) O-SO 15.2 C 20.5 C
15.06.2003 01:00 19.9 C 78 % 1018.4 hPa 0.0 l/m 0.6 km/h (0 Bft) SO 15.8 C 19.9 C
15.06.2003 02:00 19.0 C 82 % 1018.4 hPa 0.0 l/m 1.3 km/h (1 Bft) O-SO 15.8 C 19.0 C
15.06.2003 03:00 18.7 C 86 % 1018.4 hPa 0.0 l/m 0.0 km/h (0 Bft) N 16.2 C 18.7 C
15.06.2003 04:00 18.0 C 90 % 1018.4 hPa 0.0 l/m 0.0 km/h (0 Bft) N 16.3 C 18.0 C
15.06.2003 05:00 17.8 C 92 % 1018.4 hPa 0.0 l/m 0.0 km/h (0 Bft) N 16.4 C 17.8 C
15.06.2003 06:00 18.2 C 95 % 1018.4 hPa 0.3 l/m 0.0 km/h (0 Bft) N 17.3 C 18.2 C
15.06.2003 07:00 18.9 C 93 % 1018.4 hPa 0.0 l/m 0.3 km/h (0 Bft) SO 17.6 C 18.9 C
15.06.2003 08:00 20.0 C 86 % 1018.5 hPa 0.0 l/m 0.0 km/h (0 Bft) N 17.5 C 20.0 C
15.06.2003 09:00 21.4 C 75 % 1018.5 hPa 0.0 l/m 0.2 km/h (0 Bft) W-NW 16.7 C 21.4 C
15.06.2003 10:00 22.9 C 67 % 1018.4 hPa 0.0 l/m 1.1 km/h (0 Bft) W-NW 16.4 C 22.9 C
15.06.2003 11:00 24.7 C 61 % 1018.4 hPa 0.0 l/m 3.3 km/h (1 Bft) O-SO 16.6 C 24.7 C
15.06.2003 12:00 26.6 C 52 % 1017.6 hPa 0.0 l/m 1.3 km/h (1 Bft) W-NW 16.0 C 26.6 C
15.06.2003 13:00 28.1 C 47 % 1017.0 hPa 0.0 l/m 3.6 km/h (1 Bft) W-NW 15.8 C 28.1 C
15.06.2003 14:00 29.6 C 40 % 1016.3 hPa 0.0 l/m 6.1 km/h (2 Bft) W-NW 14.6 C 29.6 C
15.06.2003 15:00 30.9 C 34 % 1015.5 hPa 0.0 l/m 14.4 km/h (3 Bft) W-NW 13.1 C 30.9 C
15.06.2003 16:00 31.0 C 35 % 1015.3 hPa 0.0 l/m 8.0 km/h (2 Bft) W-NW 13.5 C 31.0 C
15.06.2003 17:00 31.3 C 36 % 1015.2 hPa 0.0 l/m 0.5 km/h (0 Bft) O-NO 14.1 C 31.3 C
15.06.2003 18:00 30.2 C 42 % 1014.6 hPa 0.0 l/m 1.8 km/h (1 Bft) O-SO 15.9 C 30.2 C
15.06.2003 19:00 29.0 C 46 % 1015.3 hPa 0.0 l/m 2.9 km/h (1 Bft) O-SO 16.1 C 29.0 C
15.06.2003 20:00 27.4 C 51 % 1015.3 hPa 0.0 l/m 1.1 km/h (0 Bft) O-SO 16.3 C 27.4 C
15.06.2003 21:00 25.1 C 58 % 1015.3 hPa 0.0 l/m 0.0 km/h (0 Bft) N 16.0 C 25.1 C
15.06.2003 22:00 22.4 C 72 % 1015.9 hPa 0.0 l/m 4.1 km/h (1 Bft) O-SO 17.0 C 22.4 C
15.06.2003 23:00 22.0 C 67 % 1016.0 hPa 0.0 l/m 1.8 km/h (1 Bft) O-SO 15.5 C 22.0 C
Min-Datum _ 10.06.03 10.06.03 15.06.03 - 09.06.03 - 12.06.03 10.06.03
_ Min-Zeit 05:20 15:17 17:57 - 00:08 - 13:47 05:20
Minimum _ 14.4 C 25 % 1014.2 hPa - 0.0 km/h (0 Bft) - 9.1 C 14.4 C
Max-Datum _ 12.06.03 09.06.03 13.06.03 13.06.03 14.06.03 - 13.06.03 12.06.03
_ Max-Zeit 17:05 00:02 11:48 10:12 16:30 - 10:51 17:05
Maximum _ 35.1 C 100 % 1023.6 hPa 1.5 l/m 44.8 km/h
NW (6 Bft)
- 19.8 C 35.1 C
Durchschnitt _ 23.7 C 65 % 1018.8 hPa #2.1 l/m 2.4 km/h (1 Bft) O-SO 15.6 C 23.7 C

Durchschnitt Minimum Temp.22.7 C
Durchschnitt Maximum Temp.24.7 C
© Kaiko 2003